TimeEST,TemperatureF,Dew PointF,Humidity,Sea Level PressureIn,VisibilityMPH,Wind Direction,Wind SpeedMPH,Gust SpeedMPH,PrecipitationIn,Events,Conditions,WindDirDegrees,DateUTC
12:15 AM,35.6,26.6,70,30.30,10.0,Calm,Calm,-,N/A,,Clear,0,2012-11-15 05:15:00
12:35 AM,34.5,26.6,73,30.29,10.0,Calm,Calm,-,N/A,,Clear,0,2012-11-15 05:35:00
12:55 AM,34.3,26.6,73,30.29,10.0,Calm,Calm,-,N/A,,Clear,0,2012-11-15 05:55:00
1:15 AM,33.3,26.6,77,30.28,10.0,Calm,Calm,-,N/A,,Clear,0,2012-11-15 06:15:00
1:35 AM,32.0,27.5,83,30.27,10.0,Calm,Calm,-,N/A,,Clear,0,2012-11-15 06:35:00
1:55 AM,33.1,26.8,78,30.28,10.0,Calm,Calm,-,N/A,,Clear,0,2012-11-15 06:55:00
2:15 AM,33.1,26.6,77,30.28,10.0,Calm,Calm,-,N/A,,Clear,0,2012-11-15 07:15:00
2:35 AM,32.4,26.6,79,30.28,10.0,Calm,Calm,-,N/A,,Clear,0,2012-11-15 07:35:00
2:55 AM,30.2,26.8,87,30.27,10.0,NNE,5.8,-,N/A,,Clear,30,2012-11-15 07:55:00
3:15 AM,30.9,27.1,86,30.28,10.0,East,3.5,-,N/A,,Clear,90,2012-11-15 08:15:00
3:35 AM,31.6,27.1,83,30.28,10.0,Calm,Calm,-,N/A,,Clear,0,2012-11-15 08:35:00
3:55 AM,29.8,27.1,90,30.27,10.0,Calm,Calm,-,N/A,,Clear,0,2012-11-15 08:55:00
4:15 AM,30.9,26.6,84,30.28,10.0,Calm,Calm,-,N/A,,Clear,0,2012-11-15 09:15:00
4:35 AM,30.9,26.6,84,30.28,10.0,Calm,Calm,-,N/A,,Clear,0,2012-11-15 09:35:00
4:55 AM,30.2,26.6,86,30.29,10.0,Calm,Calm,-,N/A,,Clear,0,2012-11-15 09:55:00
5:15 AM,29.5,27.0,90,30.29,10.0,Calm,Calm,-,N/A,,Clear,0,2012-11-15 10:15:00
5:35 AM,29.3,27.3,92,30.29,10.0,Calm,Calm,-,N/A,,Clear,0,2012-11-15 10:35:00
5:55 AM,30.2,26.8,87,30.29,10.0,Calm,Calm,-,N/A,,Clear,0,2012-11-15 10:55:00
6:15 AM,29.7,27.1,90,30.29,10.0,Calm,Calm,-,N/A,,Clear,0,2012-11-15 11:15:00
6:35 AM,29.3,27.1,92,30.29,10.0,Calm,Calm,-,N/A,,Clear,0,2012-11-15 11:35:00
6:55 AM,28.9,26.2,90,30.29,10.0,Calm,Calm,-,N/A,,Clear,0,2012-11-15 11:55:00
7:15 AM,27.3,26.1,95,30.30,10.0,Calm,Calm,-,N/A,,Clear,0,2012-11-15 12:15:00
7:35 AM,28.4,26.4,92,30.31,10.0,NW,3.5,-,N/A,,Clear,310,2012-11-15 12:35:00
7:55 AM,29.7,27.1,90,30.31,10.0,Calm,Calm,-,N/A,,Clear,0,2012-11-15 12:55:00
8:15 AM,29.1,27.1,92,30.32,10.0,Calm,Calm,-,N/A,,Clear,0,2012-11-15 13:15:00
8:35 AM,29.8,27.7,92,30.32,10.0,Calm,Calm,-,N/A,,Clear,0,2012-11-15 13:35:00
8:55 AM,30.7,28.6,92,30.32,10.0,Calm,Calm,-,N/A,,Clear,0,2012-11-15 13:55:00
9:15 AM,31.8,28.2,87,30.33,10.0,Calm,Calm,-,N/A,,Clear,0,2012-11-15 14:15:00
9:35 AM,32.4,28.2,85,30.33,10.0,Calm,Calm,-,N/A,,Clear,0,2012-11-15 14:35:00
9:55 AM,34.3,30.2,85,30.33,10.0,Calm,Calm,-,N/A,,Clear,0,2012-11-15 14:55:00
10:15 AM,35.8,30.0,80,30.34,10.0,Calm,Calm,-,N/A,,Clear,0,2012-11-15 15:15:00
10:35 AM,36.9,30.6,78,30.34,10.0,Calm,Calm,-,N/A,,Clear,0,2012-11-15 15:35:00
10:55 AM,38.3,30.9,75,30.34,10.0,Calm,Calm,-,N/A,,Clear,0,2012-11-15 15:55:00
11:15 AM,40.6,31.1,69,30.33,10.0,Calm,Calm,-,N/A,,Clear,0,2012-11-15 16:15:00
11:35 AM,41.9,31.3,66,30.32,10.0,Calm,Calm,-,N/A,,Clear,0,2012-11-15 16:35:00
11:55 AM,44.2,31.1,60,30.32,10.0,Calm,Calm,-,N/A,,Clear,0,2012-11-15 16:55:00
12:15 PM,44.6,31.3,60,30.31,10.0,Calm,Calm,-,N/A,,Clear,0,2012-11-15 17:15:00
12:35 PM,46.2,31.6,57,30.31,10.0,West,3.5,-,N/A,,Clear,280,2012-11-15 17:35:00
12:55 PM,46.8,31.1,55,30.30,10.0,Calm,Calm,-,N/A,,Clear,0,2012-11-15 17:55:00
1:15 PM,47.8,32.0,54,30.30,10.0,Calm,Calm,-,N/A,,Clear,0,2012-11-15 18:15:00
1:35 PM,47.8,30.9,52,30.29,10.0,Calm,Calm,-,N/A,,Clear,0,2012-11-15 18:35:00
1:55 PM,49.3,31.5,50,30.29,10.0,Calm,Calm,-,N/A,,Clear,0,2012-11-15 18:55:00
2:15 PM,49.6,30.9,49,30.28,10.0,Calm,Calm,-,N/A,,Clear,0,2012-11-15 19:15:00
2:35 PM,50.0,31.1,48,30.27,10.0,East,3.5,-,N/A,,Clear,80,2012-11-15 19:35:00
2:55 PM,50.4,31.5,48,30.26,10.0,Calm,Calm,-,N/A,,Clear,0,2012-11-15 19:55:00
3:15 PM,50.2,31.6,49,30.26,10.0,Calm,Calm,-,N/A,,Clear,0,2012-11-15 20:15:00
3:35 PM,50.2,29.8,46,30.26,10.0,Calm,Calm,-,N/A,,Clear,0,2012-11-15 20:35:00
3:55 PM,50.4,30.0,46,30.26,10.0,Calm,Calm,-,N/A,,Clear,0,2012-11-15 20:55:00
4:15 PM,49.1,30.2,48,30.26,10.0,Calm,Calm,-,N/A,,Clear,0,2012-11-15 21:15:00
4:35 PM,48.7,29.5,47,30.26,10.0,Calm,Calm,-,N/A,,Clear,0,2012-11-15 21:35:00
4:55 PM,48.2,29.7,49,30.26,10.0,Calm,Calm,-,N/A,,Clear,0,2012-11-15 21:55:00
5:15 PM,48.0,29.7,49,30.26,10.0,Calm,Calm,-,N/A,,Clear,0,2012-11-15 22:15:00
5:35 PM,46.2,30.0,53,30.27,10.0,Calm,Calm,-,N/A,,Clear,0,2012-11-15 22:35:00
5:55 PM,44.8,29.8,56,30.27,10.0,NE,3.5,-,N/A,,Clear,40,2012-11-15 22:55:00
6:35 PM,43.7,30.0,59,30.28,10.0,Calm,Calm,-,N/A,,Clear,0,2012-11-15 23:35:00
6:55 PM,43.0,29.8,60,30.28,10.0,Calm,Calm,-,N/A,,Clear,0,2012-11-15 23:55:00
7:15 PM,42.3,29.8,61,30.28,10.0,NE,3.5,-,N/A,,Clear,40,2012-11-16 00:15:00
7:35 PM,42.1,29.8,62,30.28,10.0,NE,3.5,-,N/A,,Clear,50,2012-11-16 00:35:00
7:55 PM,40.8,29.8,65,30.28,10.0,NNE,3.5,-,N/A,,Clear,30,2012-11-16 00:55:00
8:35 PM,41.9,29.8,62,30.30,10.0,NNE,3.5,-,N/A,,Clear,20,2012-11-16 01:35:00
8:55 PM,40.8,29.7,64,30.30,10.0,NE,4.6,-,N/A,,Clear,40,2012-11-16 01:55:00
9:15 PM,39.4,29.7,68,30.30,10.0,NE,3.5,-,N/A,,Clear,50,2012-11-16 02:15:00
9:55 PM,39.2,30.7,72,30.30,10.0,Calm,Calm,-,N/A,,Clear,0,2012-11-16 02:55:00
10:15 PM,38.8,29.7,70,30.31,10.0,Calm,Calm,-,N/A,,Clear,0,2012-11-16 03:15:00
10:35 PM,40.1,29.7,66,30.31,10.0,Calm,Calm,-,N/A,,Clear,0,2012-11-16 03:35:00
10:55 PM,39.7,29.8,68,30.30,10.0,Calm,Calm,-,N/A,,Clear,0,2012-11-16 03:55:00
11:15 PM,38.3,29.7,71,30.30,10.0,Calm,Calm,-,N/A,,Clear,0,2012-11-16 04:15:00
11:35 PM,37.6,29.5,73,30.31,10.0,Calm,Calm,-,N/A,,Clear,0,2012-11-16 04:35:00
11:55 PM,36.9,29.5,75,30.31,10.0,Calm,Calm,-,N/A,,Clear,0,2012-11-16 04:55:00